Terminal Aerodrome Forecast
Issued by NWS Cleveland, OH

Home | Current Version | Previous Version | Text Only | Print | Product List | Glossary Off
Versions: 1 2 3 4 5 6 7 8 9 10 11 12 13 14 15 16

501
FTUS41 KCLE 222334
TAFCAK
TAF
KCAK 222334Z 2300/2324 35014KT P6SM FEW045
     FM230100 36005KT P6SM FEW045
     FM231500 35006KT P6SM SCT035
     FM231700 35009KT P6SM BKN040=

USA.gov is the U.S. government's official web portal to all federal, state and local government web resources and services.